Saxon, Wisconsin
Current Conditions -  °F | °C
As of 3:35 AM on Friday 28 Nov 2014 (Local Time) from KIWD Reporting Station
Overcast Overcast  
Wind Chill: -4°   Ceiling: 7000
Heat Index:   Visibility: 10mi
Dew Point:   Wind: 5mph
Humidity: 100%   Direction: 210°SSW
Pressure: 30.15"   Gusts: NA
Location:  46.49°N, 90.41°W
Report Text: KIWD 280935Z AUTO 21004KT 10SM BKN070 OVC090 M15/M15 A3015 RMK AO1
Loading
Personal Weather Stations






























Interactive Weather Map New forecast layout! Learn more

10-Day Weather Forecast

Advertisements
Track Severe Weather on mobile